sensor_id;sensor_type;location;lat;lon;timestamp;pressure;altitude;pressure_sealevel;temperature;humidity
28354;BME280;15603;50.878;8.036;2023-04-27T00:01:40;144750.28;;;6.29;90.60
28354;BME280;15603;50.878;8.036;2023-04-27T00:04:07;144721.22;;;6.17;90.30
28354;BME280;15603;50.878;8.036;2023-04-27T00:06:35;144757.56;;;6.32;90.16
28354;BME280;15603;50.878;8.036;2023-04-27T00:09:02;144710.34;;;6.12;90.60
28354;BME280;15603;50.878;8.036;2023-04-27T00:11:30;144705.44;;;6.10;89.73
28354;BME280;15603;50.878;8.036;2023-04-27T00:13:57;144728.50;;;6.20;89.54
28354;BME280;15603;50.878;8.036;2023-04-27T00:16:24;144721.22;;;6.17;90.36
28354;BME280;15603;50.878;8.036;2023-04-27T00:18:52;144745.44;;;6.27;89.83
28354;BME280;15603;50.878;8.036;2023-04-27T00:21:19;144738.19;;;6.24;90.54
28354;BME280;15603;50.878;8.036;2023-04-27T00:23:46;144692.16;;;6.04;90.71
28354;BME280;15603;50.878;8.036;2023-04-27T00:26:13;144732.13;;;6.21;90.20
28354;BME280;15603;50.878;8.036;2023-04-27T00:28:43;144693.38;;;6.05;92.84
28354;BME280;15603;50.878;8.036;2023-04-27T00:31:10;144721.22;;;6.17;92.20
28354;BME280;15603;50.878;8.036;2023-04-27T00:33:37;144750.28;;;6.29;91.61
28354;BME280;15603;50.878;8.036;2023-04-27T00:36:04;144682.44;;;6.00;92.46
28354;BME280;15603;50.878;8.036;2023-04-27T00:38:31;144716.38;;;6.15;94.13
28354;BME280;15603;50.878;8.036;2023-04-27T00:41:00;144689.72;;;6.03;94.71
28354;BME280;15603;50.878;8.036;2023-04-27T00:43:27;144652.13;;;5.87;92.88
28354;BME280;15603;50.878;8.036;2023-04-27T00:45:55;144706.69;;;6.11;93.23
28354;BME280;15603;50.878;8.036;2023-04-27T00:48:23;144666.66;;;5.94;94.13
28354;BME280;15603;50.878;8.036;2023-04-27T00:50:51;144648.50;;;5.86;95.36
28354;BME280;15603;50.878;8.036;2023-04-27T00:53:18;144687.28;;;6.02;95.29
28354;BME280;15603;50.878;8.036;2023-04-27T00:55:45;144694.56;;;6.05;93.45
28354;BME280;15603;50.878;8.036;2023-04-27T00:58:12;144647.28;;;5.85;96.87
28354;BME280;15603;50.878;8.036;2023-04-27T01:00:40;144677.59;;;5.98;96.44
28354;BME280;15603;50.878;8.036;2023-04-27T01:03:07;144648.50;;;5.86;95.17
28354;BME280;15603;50.878;8.036;2023-04-27T01:05:36;144627.88;;;5.77;94.59
28354;BME280;15603;50.878;8.036;2023-04-27T01:08:04;144612.16;;;5.70;95.00
28354;BME280;15603;50.878;8.036;2023-04-27T01:10:34;144641.22;;;5.83;95.38
28354;BME280;15603;50.878;8.036;2023-04-27T01:13:01;144595.19;;;5.63;97.15
28354;BME280;15603;50.878;8.036;2023-04-27T01:15:30;144609.72;;;5.69;95.62
28354;BME280;15603;50.878;8.036;2023-04-27T01:18:01;144660.63;;;5.91;94.67
28354;BME280;15603;50.878;8.036;2023-04-27T01:20:28;144594.00;;;5.63;92.60
28354;BME280;15603;50.878;8.036;2023-04-27T01:22:56;144646.06;;;5.85;96.25
28354;BME280;15603;50.878;8.036;2023-04-27T01:25:24;144604.88;;;5.67;96.19
28354;BME280;15603;50.878;8.036;2023-04-27T01:27:52;144600.03;;;5.65;96.47
28354;BME280;15603;50.878;8.036;2023-04-27T01:30:20;144624.28;;;5.76;93.64
28354;BME280;15603;50.878;8.036;2023-04-27T01:32:48;144629.13;;;5.78;94.72
28354;BME280;15603;50.878;8.036;2023-04-27T01:35:18;144619.44;;;5.74;96.13
28354;BME280;15603;50.878;8.036;2023-04-27T01:37:45;144587.94;;;5.60;97.12
28354;BME280;15603;50.878;8.036;2023-04-27T01:40:12;144579.47;;;5.57;94.54
28354;BME280;15603;50.878;8.036;2023-04-27T01:42:39;144619.44;;;5.74;93.02
28354;BME280;15603;50.878;8.036;2023-04-27T01:45:08;144604.88;;;5.67;94.50
28354;BME280;15603;50.878;8.036;2023-04-27T01:47:35;144575.81;;;5.55;93.75
28354;BME280;15603;50.878;8.036;2023-04-27T01:50:04;144621.84;;;5.75;92.15
28354;BME280;15603;50.878;8.036;2023-04-27T01:52:32;144544.34;;;5.42;92.84
28354;BME280;15603;50.878;8.036;2023-04-27T01:55:01;144579.47;;;5.57;90.65
28354;BME280;15603;50.878;8.036;2023-04-27T01:57:29;144577.03;;;5.56;92.63
28354;BME280;15603;50.878;8.036;2023-04-27T01:59:56;144604.88;;;5.67;93.53
28354;BME280;15603;50.878;8.036;2023-04-27T02:02:23;144566.13;;;5.51;96.42
28354;BME280;15603;50.878;8.036;2023-04-27T02:04:51;144492.28;;;5.20;95.92
28354;BME280;15603;50.878;8.036;2023-04-27T02:07:18;144532.22;;;5.37;96.59
28354;BME280;15603;50.878;8.036;2023-04-27T02:09:45;144527.38;;;5.35;95.67
28354;BME280;15603;50.878;8.036;2023-04-27T02:12:13;144512.84;;;5.28;96.46
28354;BME280;15603;50.878;8.036;2023-04-27T02:14:40;144361.56;;;4.64;96.21
28354;BME280;15603;50.878;8.036;2023-04-27T02:17:07;144528.63;;;5.35;97.47
28354;BME280;15603;50.878;8.036;2023-04-27T02:19:34;144517.69;;;5.30;97.77
28354;BME280;15603;50.878;8.036;2023-04-27T02:22:02;144537.06;;;5.39;96.92
28354;BME280;15603;50.878;8.036;2023-04-27T02:24:30;144534.66;;;5.38;97.94
28354;BME280;15603;50.878;8.036;2023-04-27T02:26:57;144539.50;;;5.40;95.56
28354;BME280;15603;50.878;8.036;2023-04-27T02:29:28;144561.31;;;5.49;96.71
28354;BME280;15603;50.878;8.036;2023-04-27T02:31:56;144550.38;;;5.44;97.35
28354;BME280;15603;50.878;8.036;2023-04-27T02:34:23;144501.97;;;5.24;97.60
28354;BME280;15603;50.878;8.036;2023-04-27T02:36:50;144518.88;;;5.31;96.99
28354;BME280;15603;50.878;8.036;2023-04-27T02:39:17;144522.53;;;5.32;97.16
28354;BME280;15603;50.878;8.036;2023-04-27T02:41:44;144512.84;;;5.28;98.07
28354;BME280;15603;50.878;8.036;2023-04-27T02:44:12;144505.59;;;5.25;98.24
28354;BME280;15603;50.878;8.036;2023-04-27T02:46:39;144503.16;;;5.24;98.78
28354;BME280;15603;50.878;8.036;2023-04-27T02:49:07;144458.38;;;5.05;100.00
28354;BME280;15603;50.878;8.036;2023-04-27T02:51:34;144483.81;;;5.16;99.46
28354;BME280;15603;50.878;8.036;2023-04-27T02:54:01;144435.38;;;4.96;99.53
28354;BME280;15603;50.878;8.036;2023-04-27T02:56:29;144454.72;;;5.04;98.91
28354;BME280;15603;50.878;8.036;2023-04-27T02:58:56;144377.25;;;4.71;99.46
28354;BME280;15603;50.878;8.036;2023-04-27T03:01:23;144416.00;;;4.87;99.24
28354;BME280;15603;50.878;8.036;2023-04-27T03:03:50;144391.78;;;4.77;100.00
28354;BME280;15603;50.878;8.036;2023-04-27T03:06:17;144466.84;;;5.09;100.00
28354;BME280;15603;50.878;8.036;2023-04-27T03:08:44;144465.66;;;5.08;99.18
28354;BME280;15603;50.878;8.036;2023-04-27T03:11:11;144423.25;;;4.90;99.37
28354;BME280;15603;50.878;8.036;2023-04-27T03:13:38;144432.97;;;4.95;99.35
28354;BME280;15603;50.878;8.036;2023-04-27T03:16:11;144418.41;;;4.88;99.80
28354;BME280;15603;50.878;8.036;2023-04-27T03:18:39;144365.19;;;4.66;99.06
28354;BME280;15603;50.878;8.036;2023-04-27T03:21:10;144413.56;;;4.86;100.00
28354;BME280;15603;50.878;8.036;2023-04-27T03:23:38;144382.09;;;4.73;100.00
28354;BME280;15603;50.878;8.036;2023-04-27T03:26:06;144386.94;;;4.75;100.00
28354;BME280;15603;50.878;8.036;2023-04-27T03:28:34;144357.91;;;4.63;100.00
28354;BME280;15603;50.878;8.036;2023-04-27T03:31:06;144378.50;;;4.71;100.00
28354;BME280;15603;50.878;8.036;2023-04-27T03:33:33;144205.44;;;3.98;100.00
28354;BME280;15603;50.878;8.036;2023-04-27T03:36:01;144336.13;;;4.53;100.00
28354;BME280;15603;50.878;8.036;2023-04-27T03:38:29;144353.06;;;4.61;100.00
28354;BME280;15603;50.878;8.036;2023-04-27T03:40:56;144258.69;;;4.21;100.00
28354;BME280;15603;50.878;8.036;2023-04-27T03:43:24;144327.66;;;4.50;100.00
28354;BME280;15603;50.878;8.036;2023-04-27T03:45:51;144253.84;;;4.19;100.00
28354;BME280;15603;50.878;8.036;2023-04-27T03:48:19;144241.72;;;4.13;100.00
28354;BME280;15603;50.878;8.036;2023-04-27T03:50:47;144261.13;;;4.22;100.00
28354;BME280;15603;50.878;8.036;2023-04-27T03:53:14;144245.38;;;4.15;100.00
28354;BME280;15603;50.878;8.036;2023-04-27T03:55:43;144280.47;;;4.30;100.00
28354;BME280;15603;50.878;8.036;2023-04-27T03:58:11;144212.72;;;4.01;100.00
28354;BME280;15603;50.878;8.036;2023-04-27T04:00:50;144200.63;;;3.96;100.00
28354;BME280;15603;50.878;8.036;2023-04-27T04:03:18;144205.44;;;3.98;100.00
28354;BME280;15603;50.878;8.036;2023-04-27T04:05:45;144242.97;;;4.14;100.00
28354;BME280;15603;50.878;8.036;2023-04-27T04:08:13;144236.91;;;4.11;100.00
28354;BME280;15603;50.878;8.036;2023-04-27T04:10:40;144224.84;;;4.06;100.00
28354;BME280;15603;50.878;8.036;2023-04-27T04:13:08;144215.16;;;4.02;100.00
28354;BME280;15603;50.878;8.036;2023-04-27T04:15:36;144186.09;;;3.90;100.00
28354;BME280;15603;50.878;8.036;2023-04-27T04:18:03;144149.81;;;3.74;100.00
28354;BME280;15603;50.878;8.036;2023-04-27T04:20:33;144195.78;;;3.94;100.00
28354;BME280;15603;50.878;8.036;2023-04-27T04:23:01;144176.44;;;3.86;100.00
28354;BME280;15603;50.878;8.036;2023-04-27T04:25:28;144199.41;;;3.96;100.00
28354;BME280;15603;50.878;8.036;2023-04-27T04:27:56;144101.44;;;3.54;100.00
28354;BME280;15603;50.878;8.036;2023-04-27T04:30:23;144176.44;;;3.86;100.00
28354;BME280;15603;50.878;8.036;2023-04-27T04:32:51;144145.00;;;3.72;100.00
28354;BME280;15603;50.878;8.036;2023-04-27T04:35:18;144146.19;;;3.73;100.00
28354;BME280;15603;50.878;8.036;2023-04-27T04:37:45;144120.81;;;3.62;100.00
28354;BME280;15603;50.878;8.036;2023-04-27T04:40:14;144132.88;;;3.67;100.00
28354;BME280;15603;50.878;8.036;2023-04-27T04:42:41;144151.03;;;3.75;100.00
28354;BME280;15603;50.878;8.036;2023-04-27T04:45:08;144164.31;;;3.81;100.00
28354;BME280;15603;50.878;8.036;2023-04-27T04:47:36;144169.16;;;3.83;100.00
28354;BME280;15603;50.878;8.036;2023-04-27T04:50:03;144178.88;;;3.87;100.00
28354;BME280;15603;50.878;8.036;2023-04-27T04:52:30;144145.00;;;3.72;100.00
28354;BME280;15603;50.878;8.036;2023-04-27T04:54:57;144147.44;;;3.73;100.00
28354;BME280;15603;50.878;8.036;2023-04-27T04:57:25;144204.25;;;3.98;100.00
28354;BME280;15603;50.878;8.036;2023-04-27T04:59:53;144141.34;;;3.71;100.00
28354;BME280;15603;50.878;8.036;2023-04-27T05:02:20;144171.59;;;3.84;100.00
28354;BME280;15603;50.878;8.036;2023-04-27T05:04:48;144152.25;;;3.76;100.00
28354;BME280;15603;50.878;8.036;2023-04-27T05:07:18;144203.06;;;3.97;100.00
28354;BME280;15603;50.878;8.036;2023-04-27T05:09:50;144229.66;;;4.08;100.00
28354;BME280;15603;50.878;8.036;2023-04-27T05:12:17;144198.22;;;3.95;100.00
28354;BME280;15603;50.878;8.036;2023-04-27T05:14:44;144204.25;;;3.98;100.00
28354;BME280;15603;50.878;8.036;2023-04-27T05:17:11;144229.66;;;4.08;100.00
28354;BME280;15603;50.878;8.036;2023-04-27T05:19:39;144272.00;;;4.26;100.00
28354;BME280;15603;50.878;8.036;2023-04-27T05:22:07;144270.81;;;4.26;100.00
28354;BME280;15603;50.878;8.036;2023-04-27T05:24:33;144261.13;;;4.22;100.00
28354;BME280;15603;50.878;8.036;2023-04-27T05:27:01;144299.81;;;4.38;100.00
28354;BME280;15603;50.878;8.036;2023-04-27T05:29:28;144319.16;;;4.46;100.00
28354;BME280;15603;50.878;8.036;2023-04-27T05:31:55;144351.88;;;4.60;98.82
28354;BME280;15603;50.878;8.036;2023-04-27T05:34:22;144382.09;;;4.73;99.13
28354;BME280;15603;50.878;8.036;2023-04-27T05:36:49;144391.78;;;4.77;98.84
28354;BME280;15603;50.878;8.036;2023-04-27T05:39:17;144333.72;;;4.52;98.89
28354;BME280;15603;50.878;8.036;2023-04-27T05:41:44;144440.22;;;4.98;98.54
28354;BME280;15603;50.878;8.036;2023-04-27T05:44:11;144457.16;;;5.05;97.18
28354;BME280;15603;50.878;8.036;2023-04-27T05:46:38;144422.06;;;4.90;97.91
28354;BME280;15603;50.878;8.036;2023-04-27T05:49:05;144457.16;;;5.05;97.59
28354;BME280;15603;50.878;8.036;2023-04-27T05:51:32;144426.91;;;4.92;96.60
28354;BME280;15603;50.878;8.036;2023-04-27T05:53:59;144505.59;;;5.25;94.69
28354;BME280;15603;50.878;8.036;2023-04-27T05:56:27;144583.09;;;5.58;95.18
28354;BME280;15603;50.878;8.036;2023-04-27T05:58:54;144607.31;;;5.68;94.62
28354;BME280;15603;50.878;8.036;2023-04-27T06:01:21;144580.66;;;5.57;94.37
28354;BME280;15603;50.878;8.036;2023-04-27T06:03:49;144650.91;;;5.87;94.92
28354;BME280;15603;50.878;8.036;2023-04-27T06:06:16;144641.22;;;5.83;93.17
28354;BME280;15603;50.878;8.036;2023-04-27T06:08:43;144709.09;;;6.12;93.67
28354;BME280;15603;50.878;8.036;2023-04-27T06:11:11;144663.03;;;5.92;92.34
28354;BME280;15603;50.878;8.036;2023-04-27T06:13:38;144675.19;;;5.97;92.63
28354;BME280;15603;50.878;8.036;2023-04-27T06:16:05;144723.63;;;6.18;90.94
28354;BME280;15603;50.878;8.036;2023-04-27T06:18:32;144675.19;;;5.97;89.38
28354;BME280;15603;50.878;8.036;2023-04-27T06:21:00;144752.72;;;6.30;88.58
28354;BME280;15603;50.878;8.036;2023-04-27T06:23:28;144776.94;;;6.40;89.19
28354;BME280;15603;50.878;8.036;2023-04-27T06:25:55;144752.72;;;6.30;88.22
28354;BME280;15603;50.878;8.036;2023-04-27T06:28:22;144759.97;;;6.33;88.03
28354;BME280;15603;50.878;8.036;2023-04-27T06:30:49;144820.59;;;6.59;87.62
28354;BME280;15603;50.878;8.036;2023-04-27T06:33:16;144812.09;;;6.55;85.27
28354;BME280;15603;50.878;8.036;2023-04-27T06:35:44;144928.50;;;7.04;82.96
28354;BME280;15603;50.878;8.036;2023-04-27T06:38:13;144878.78;;;6.83;82.49
28354;BME280;15603;50.878;8.036;2023-04-27T06:40:40;144903.00;;;6.94;79.62
28354;BME280;15603;50.878;8.036;2023-04-27T06:43:07;144932.09;;;7.06;78.98
28354;BME280;15603;50.878;8.036;2023-04-27T06:45:34;144929.69;;;7.05;81.84
28354;BME280;15603;50.878;8.036;2023-04-27T06:48:02;144992.75;;;7.32;78.05
28354;BME280;15603;50.878;8.036;2023-04-27T06:50:29;144888.47;;;6.87;77.31
28354;BME280;15603;50.878;8.036;2023-04-27T06:52:56;144898.16;;;6.92;76.51
28354;BME280;15603;50.878;8.036;2023-04-27T06:55:23;145021.84;;;7.44;74.59
28354;BME280;15603;50.878;8.036;2023-04-27T06:57:51;145057.03;;;7.59;73.09
28354;BME280;15603;50.878;8.036;2023-04-27T07:00:18;145101.91;;;7.78;73.20
28354;BME280;15603;50.878;8.036;2023-04-27T07:02:45;145211.09;;;8.24;69.15
28354;BME280;15603;50.878;8.036;2023-04-27T07:05:12;145235.34;;;8.34;68.64
28354;BME280;15603;50.878;8.036;2023-04-27T07:07:40;145225.66;;;8.30;67.15
28354;BME280;15603;50.878;8.036;2023-04-27T07:10:07;145279.09;;;8.53;67.34
28354;BME280;15603;50.878;8.036;2023-04-27T07:12:36;145189.25;;;8.15;64.37
28354;BME280;15603;50.878;8.036;2023-04-27T07:15:04;145298.50;;;8.61;65.29
28354;BME280;15603;50.878;8.036;2023-04-27T07:17:32;145388.34;;;8.99;65.02
28354;BME280;15603;50.878;8.036;2023-04-27T07:20:03;145415.03;;;9.10;63.44
28354;BME280;15603;50.878;8.036;2023-04-27T07:22:32;145395.63;;;9.02;63.35
28354;BME280;15603;50.878;8.036;2023-04-27T07:24:59;145334.94;;;8.76;61.27
28354;BME280;15603;50.878;8.036;2023-04-27T07:27:26;145373.75;;;8.93;61.07
28354;BME280;15603;50.878;8.036;2023-04-27T07:29:53;145299.72;;;8.61;61.08
28354;BME280;15603;50.878;8.036;2023-04-27T07:32:20;145342.19;;;8.79;59.73
28354;BME280;15603;50.878;8.036;2023-04-27T07:34:48;145351.94;;;8.83;63.99
28354;BME280;15603;50.878;8.036;2023-04-27T07:37:20;145459.97;;;9.29;60.71
28354;BME280;15603;50.878;8.036;2023-04-27T07:39:49;145364.03;;;8.89;60.33
28354;BME280;15603;50.878;8.036;2023-04-27T07:42:16;145422.31;;;9.13;61.00
28354;BME280;15603;50.878;8.036;2023-04-27T07:44:44;145520.72;;;9.55;59.44
28354;BME280;15603;50.878;8.036;2023-04-27T07:47:11;145529.22;;;9.58;59.22
28354;BME280;15603;50.878;8.036;2023-04-27T07:49:39;145531.63;;;9.59;61.17
28354;BME280;15603;50.878;8.036;2023-04-27T07:52:06;145565.66;;;9.74;58.68
28354;BME280;15603;50.878;8.036;2023-04-27T07:54:34;145592.34;;;9.85;57.46
28354;BME280;15603;50.878;8.036;2023-04-27T07:57:07;145667.69;;;10.17;56.86
28354;BME280;15603;50.878;8.036;2023-04-27T07:59:34;145684.72;;;10.24;56.15
28354;BME280;15603;50.878;8.036;2023-04-27T08:02:01;145650.66;;;10.10;57.87
28354;BME280;15603;50.878;8.036;2023-04-27T08:04:44;145675.00;;;10.20;57.33
28354;BME280;15603;50.878;8.036;2023-04-27T08:07:14;145704.19;;;10.32;55.05
28354;BME280;15603;50.878;8.036;2023-04-27T08:09:41;145713.91;;;10.36;55.24
28354;BME280;15603;50.878;8.036;2023-04-27T08:12:09;145732.16;;;10.44;54.77
28354;BME280;15603;50.878;8.036;2023-04-27T08:14:36;145715.13;;;10.37;53.22
28354;BME280;15603;50.878;8.036;2023-04-27T08:17:03;145696.84;;;10.29;52.92
28354;BME280;15603;50.878;8.036;2023-04-27T08:19:30;145636.09;;;10.03;51.33
28354;BME280;15603;50.878;8.036;2023-04-27T08:21:57;145625.19;;;9.99;52.51
28354;BME280;15603;50.878;8.036;2023-04-27T08:24:24;145630.03;;;10.01;52.91
28354;BME280;15603;50.878;8.036;2023-04-27T08:26:51;145609.38;;;9.92;53.19
28354;BME280;15603;50.878;8.036;2023-04-27T08:29:19;145587.50;;;9.83;52.79
28354;BME280;15603;50.878;8.036;2023-04-27T08:31:58;145581.44;;;9.80;53.79
28354;BME280;15603;50.878;8.036;2023-04-27T08:34:26;145541.34;;;9.63;53.52
28354;BME280;15603;50.878;8.036;2023-04-27T08:36:53;145547.44;;;9.66;52.71
28354;BME280;15603;50.878;8.036;2023-04-27T08:39:20;145534.06;;;9.60;54.40
28354;BME280;15603;50.878;8.036;2023-04-27T08:41:47;145636.09;;;10.03;54.43
28354;BME280;15603;50.878;8.036;2023-04-27T08:44:14;145709.06;;;10.34;54.65
28354;BME280;15603;50.878;8.036;2023-04-27T08:46:42;145777.13;;;10.63;53.52
28354;BME280;15603;50.878;8.036;2023-04-27T08:49:09;145847.59;;;10.93;53.92
28354;BME280;15603;50.878;8.036;2023-04-27T08:51:36;145850.06;;;10.94;54.47
28354;BME280;15603;50.878;8.036;2023-04-27T08:54:03;145852.47;;;10.95;50.79
28354;BME280;15603;50.878;8.036;2023-04-27T08:56:30;145823.31;;;10.83;52.54
28354;BME280;15603;50.878;8.036;2023-04-27T08:58:57;145971.66;;;11.45;52.96
28354;BME280;15603;50.878;8.036;2023-04-27T09:01:26;145983.81;;;11.50;52.65
28354;BME280;15603;50.878;8.036;2023-04-27T09:04:00;146033.66;;;11.71;49.53
28354;BME280;15603;50.878;8.036;2023-04-27T09:06:34;146050.72;;;11.78;49.32
28354;BME280;15603;50.878;8.036;2023-04-27T09:09:02;146027.59;;;11.69;51.82
28354;BME280;15603;50.878;8.036;2023-04-27T09:11:31;145965.56;;;11.43;49.84
28354;BME280;15603;50.878;8.036;2023-04-27T09:14:01;145969.22;;;11.44;52.39
28354;BME280;15603;50.878;8.036;2023-04-27T09:16:29;146049.50;;;11.78;50.90
28354;BME280;15603;50.878;8.036;2023-04-27T09:18:57;146049.50;;;11.78;50.16
28354;BME280;15603;50.878;8.036;2023-04-27T09:21:26;146054.38;;;11.80;49.48
28354;BME280;15603;50.878;8.036;2023-04-27T09:23:54;146078.72;;;11.90;49.63
28354;BME280;15603;50.878;8.036;2023-04-27T09:26:23;146149.28;;;12.20;49.63
28354;BME280;15603;50.878;8.036;2023-04-27T09:28:52;146187.03;;;12.36;48.62
28354;BME280;15603;50.878;8.036;2023-04-27T09:31:19;146200.44;;;12.42;50.05
28354;BME280;15603;50.878;8.036;2023-04-27T09:33:54;146173.66;;;12.30;50.19
28354;BME280;15603;50.878;8.036;2023-04-27T09:36:22;146112.78;;;12.05;49.89
28354;BME280;15603;50.878;8.036;2023-04-27T09:38:50;146135.94;;;12.14;49.53
28354;BME280;15603;50.878;8.036;2023-04-27T09:41:18;146188.25;;;12.36;48.80
28354;BME280;15603;50.878;8.036;2023-04-27T09:43:45;146251.53;;;12.63;48.01
28354;BME280;15603;50.878;8.036;2023-04-27T09:46:13;146295.31;;;12.82;48.67
28354;BME280;15603;50.878;8.036;2023-04-27T09:48:41;146266.13;;;12.69;48.26
28354;BME280;15603;50.878;8.036;2023-04-27T09:51:08;146277.06;;;12.74;47.88
28354;BME280;15603;50.878;8.036;2023-04-27T09:53:51;146128.63;;;12.11;48.09
28354;BME280;15603;50.878;8.036;2023-04-27T10:01:50;146161.47;;;12.25;49.88
28354;BME280;15603;50.878;8.036;2023-04-27T10:09:32;146256.41;;;12.65;47.44
28354;BME280;15603;50.878;8.036;2023-04-27T10:12:13;146347.69;;;13.04;46.78
28354;BME280;15603;50.878;8.036;2023-04-27T10:14:57;146387.88;;;13.21;46.08
28354;BME280;15603;50.878;8.036;2023-04-27T10:17:30;146336.75;;;12.99;45.23
28354;BME280;15603;50.878;8.036;2023-04-27T10:19:59;146339.16;;;13.00;44.49
28354;BME280;15603;50.878;8.036;2023-04-27T10:22:46;146271.00;;;12.71;47.19
28354;BME280;15603;50.878;8.036;2023-04-27T10:25:19;146239.34;;;12.58;45.73
28354;BME280;15603;50.878;8.036;2023-04-27T10:27:58;146273.44;;;12.72;45.43
28354;BME280;15603;50.878;8.036;2023-04-27T10:30:30;146263.72;;;12.68;45.15
28354;BME280;15603;50.878;8.036;2023-04-27T10:33:03;146385.44;;;13.20;43.44
28354;BME280;15603;50.878;8.036;2023-04-27T10:35:31;146334.31;;;12.98;44.02
28354;BME280;15603;50.878;8.036;2023-04-27T10:38:18;146385.44;;;13.20;46.64
28354;BME280;15603;50.878;8.036;2023-04-27T10:41:02;146413.47;;;13.31;46.86
28354;BME280;15603;50.878;8.036;2023-04-27T10:43:33;146463.41;;;13.52;45.46
28354;BME280;15603;50.878;8.036;2023-04-27T10:48:39;146491.41;;;13.64;44.08
28354;BME280;15603;50.878;8.036;2023-04-27T10:51:07;146434.19;;;13.40;45.38
28354;BME280;15603;50.878;8.036;2023-04-27T10:53:37;146504.81;;;13.70;44.26
28354;BME280;15603;50.878;8.036;2023-04-27T10:56:04;146329.44;;;12.96;44.77
28354;BME280;15603;50.878;8.036;2023-04-27T10:58:33;146362.28;;;13.10;43.51
28354;BME280;15603;50.878;8.036;2023-04-27T11:01:07;146431.75;;;13.39;46.33
28354;BME280;15603;50.878;8.036;2023-04-27T11:03:35;146458.53;;;13.50;44.83
28354;BME280;15603;50.878;8.036;2023-04-27T11:06:04;146504.81;;;13.70;45.73
28354;BME280;15603;50.878;8.036;2023-04-27T11:08:31;146543.81;;;13.86;46.42
28354;BME280;15603;50.878;8.036;2023-04-27T11:11:00;146557.22;;;13.92;43.16
28354;BME280;15603;50.878;8.036;2023-04-27T11:13:27;146419.59;;;13.34;44.01
28354;BME280;15603;50.878;8.036;2023-04-27T11:15:57;146471.94;;;13.56;44.45
28354;BME280;15603;50.878;8.036;2023-04-27T11:18:26;146431.75;;;13.39;43.09
28354;BME280;15603;50.878;8.036;2023-04-27T11:21:24;146400.03;;;13.26;44.75
28354;BME280;15603;50.878;8.036;2023-04-27T11:23:52;146404.91;;;13.28;43.14
28354;BME280;15603;50.878;8.036;2023-04-27T11:26:21;146422.00;;;13.35;44.55
28354;BME280;15603;50.878;8.036;2023-04-27T11:28:58;146526.75;;;13.79;45.10
28354;BME280;15603;50.878;8.036;2023-04-27T11:31:48;146514.56;;;13.74;44.24
28354;BME280;15603;50.878;8.036;2023-04-27T11:34:20;146535.28;;;13.83;44.85
28354;BME280;15603;50.878;8.036;2023-04-27T11:36:59;146605.94;;;14.12;45.39
28354;BME280;15603;50.878;8.036;2023-04-27T11:39:44;146597.44;;;14.09;44.11
28354;BME280;15603;50.878;8.036;2023-04-27T11:42:22;146665.66;;;14.38;42.08
28354;BME280;15603;50.878;8.036;2023-04-27T11:45:03;146596.19;;;14.08;42.39
28354;BME280;15603;50.878;8.036;2023-04-27T11:47:34;146690.03;;;14.48;42.15
28354;BME280;15603;50.878;8.036;2023-04-27T11:50:05;146608.38;;;14.13;42.72
28354;BME280;15603;50.878;8.036;2023-04-27T11:52:35;146697.31;;;14.51;44.24
28354;BME280;15603;50.878;8.036;2023-04-27T11:55:03;146751.00;;;14.73;41.51
28354;BME280;15603;50.878;8.036;2023-04-27T11:57:32;146743.72;;;14.70;44.36
28354;BME280;15603;50.878;8.036;2023-04-27T12:00:00;146785.16;;;14.88;43.38
28354;BME280;15603;50.878;8.036;2023-04-27T12:02:40;146811.97;;;14.99;42.02
28354;BME280;15603;50.878;8.036;2023-04-27T12:05:08;146672.97;;;14.41;41.11
28354;BME280;15603;50.878;8.036;2023-04-27T12:07:38;146690.03;;;14.48;41.62
28354;BME280;15603;50.878;8.036;2023-04-27T12:10:06;146674.16;;;14.41;41.99
28354;BME280;15603;50.878;8.036;2023-04-27T12:12:34;146716.91;;;14.59;43.09
28354;BME280;15603;50.878;8.036;2023-04-27T12:15:01;146724.19;;;14.62;41.38
28354;BME280;15603;50.878;8.036;2023-04-27T12:17:29;146724.19;;;14.62;40.86
28354;BME280;15603;50.878;8.036;2023-04-27T12:19:56;146724.19;;;14.62;41.31
28354;BME280;15603;50.878;8.036;2023-04-27T12:22:23;146714.44;;;14.58;41.50
28354;BME280;15603;50.878;8.036;2023-04-27T12:24:50;146671.75;;;14.40;41.25
28354;BME280;15603;50.878;8.036;2023-04-27T12:27:17;146760.75;;;14.78;42.10
28354;BME280;15603;50.878;8.036;2023-04-27T12:29:44;146763.19;;;14.79;42.08
28354;BME280;15603;50.878;8.036;2023-04-27T12:32:12;146731.50;;;14.65;40.13
28354;BME280;15603;50.878;8.036;2023-04-27T12:34:39;146731.50;;;14.65;40.94
28354;BME280;15603;50.878;8.036;2023-04-27T12:37:08;146880.22;;;15.28;41.34
28354;BME280;15603;50.878;8.036;2023-04-27T12:39:35;146898.50;;;15.36;41.46
28354;BME280;15603;50.878;8.036;2023-04-27T12:42:02;146987.59;;;15.73;41.38
28354;BME280;15603;50.878;8.036;2023-04-27T12:44:30;146930.22;;;15.49;41.50
28354;BME280;15603;50.878;8.036;2023-04-27T12:46:57;146982.69;;;15.71;39.45
28354;BME280;15603;50.878;8.036;2023-04-27T12:49:24;147077.88;;;16.11;40.91
28354;BME280;15603;50.878;8.036;2023-04-27T12:51:51;147021.72;;;15.87;41.44
28354;BME280;15603;50.878;8.036;2023-04-27T12:54:18;147030.28;;;15.91;40.55
28354;BME280;15603;50.878;8.036;2023-04-27T12:56:45;146893.63;;;15.34;41.31
28354;BME280;15603;50.878;8.036;2023-04-27T12:59:13;146907.03;;;15.39;40.40
28354;BME280;15603;50.878;8.036;2023-04-27T13:01:40;146885.13;;;15.30;39.57
28354;BME280;15603;50.878;8.036;2023-04-27T13:04:07;146955.84;;;15.60;40.71
28354;BME280;15603;50.878;8.036;2023-04-27T13:06:35;146933.88;;;15.50;41.75
28354;BME280;15603;50.878;8.036;2023-04-27T13:09:02;146905.84;;;15.39;40.26
28354;BME280;15603;50.878;8.036;2023-04-27T13:11:29;146885.13;;;15.30;40.70
28354;BME280;15603;50.878;8.036;2023-04-27T13:13:56;146980.22;;;15.70;41.15
28354;BME280;15603;50.878;8.036;2023-04-27T13:16:24;146918.03;;;15.44;41.68